createdAt,value
2018-10-19T00:02:17.520Z,14.80
2018-10-19T00:04:45.795Z,15.63
2018-10-19T00:07:14.178Z,13.47
2018-10-19T00:09:42.438Z,15.77
2018-10-19T00:12:10.746Z,15.63
2018-10-19T00:14:39.057Z,16.93
2018-10-19T00:17:07.459Z,16.07
2018-10-19T00:19:35.754Z,15.43
2018-10-19T00:22:04.269Z,15.43
2018-10-19T00:24:32.576Z,15.60
2018-10-19T00:27:00.901Z,17.63
2018-10-19T00:29:29.165Z,17.60
2018-10-19T00:31:57.493Z,18.33
2018-10-19T00:34:25.827Z,17.97
2018-10-19T00:36:54.197Z,16.17
2018-10-19T00:39:22.548Z,22.23
2018-10-19T00:41:50.886Z,19.87
2018-10-19T00:44:19.186Z,20.83
2018-10-19T00:46:47.585Z,22.53
2018-10-19T00:49:15.880Z,19.17
2018-10-19T00:51:44.166Z,20.63
2018-10-19T00:54:12.464Z,20.13
2018-10-19T00:56:40.782Z,24.20
2018-10-19T00:59:09.164Z,23.00
2018-10-19T01:01:37.399Z,20.60
2018-10-19T01:04:06.663Z,22.40
2018-10-19T01:06:34.935Z,26.33
2018-10-19T01:09:03.285Z,23.40
2018-10-19T01:11:31.586Z,25.33
2018-10-19T01:13:59.971Z,25.63
2018-10-19T01:16:28.254Z,23.77
2018-10-19T01:19:05.126Z,24.70
2018-10-19T01:21:33.401Z,24.90
2018-10-19T01:24:01.709Z,23.70
2018-10-19T01:26:30.057Z,27.93
2018-10-19T01:28:58.444Z,24.47
2018-10-19T01:31:26.715Z,24.70
2018-10-19T01:33:55.099Z,25.20
2018-10-19T01:36:35.214Z,26.37
2018-10-19T01:39:04.093Z,23.87
2018-10-19T01:41:32.349Z,24.73
2018-10-19T01:44:00.696Z,28.37
2018-10-19T01:46:28.989Z,24.90
2018-10-19T01:48:57.295Z,23.80
2018-10-19T01:51:25.631Z,28.40
2018-10-19T01:53:54.011Z,28.03
2018-10-19T01:56:22.280Z,28.67
2018-10-19T01:58:50.606Z,28.17
2018-10-19T02:01:18.938Z,24.97
2018-10-19T02:03:47.252Z,26.17
2018-10-19T02:06:15.706Z,27.70
2018-10-19T02:08:44.084Z,24.50
2018-10-19T02:11:12.442Z,27.33
2018-10-19T02:13:40.743Z,27.23
2018-10-19T02:16:09.004Z,26.97
2018-10-19T02:18:37.438Z,27.13
2018-10-19T02:21:06.165Z,24.33
2018-10-19T02:23:34.447Z,26.43
2018-10-19T02:26:03.052Z,27.20
2018-10-19T02:28:31.362Z,25.87
2018-10-19T02:30:59.707Z,25.13
2018-10-19T02:33:27.973Z,23.53
2018-10-19T02:35:56.242Z,25.73
2018-10-19T02:38:24.641Z,26.43
2018-10-19T02:40:52.944Z,27.27
2018-10-19T02:43:21.224Z,27.43
2018-10-19T02:45:49.580Z,28.13
2018-10-19T02:48:17.871Z,29.03
2018-10-19T02:50:46.234Z,28.17
2018-10-19T02:53:14.810Z,29.20
2018-10-19T02:55:43.042Z,27.23
2018-10-19T02:58:11.398Z,27.00
2018-10-19T03:00:39.754Z,27.83
2018-10-19T03:03:08.085Z,29.47
2018-10-19T03:05:36.354Z,28.20
2018-10-19T03:08:04.953Z,27.43
2018-10-19T03:10:33.318Z,30.63
2018-10-19T03:13:01.652Z,28.87
2018-10-19T03:15:29.974Z,28.93
2018-10-19T03:17:58.248Z,29.07
2018-10-19T03:20:26.571Z,28.47
2018-10-19T03:22:54.865Z,28.50
2018-10-19T03:25:23.169Z,30.07
2018-10-19T03:27:51.496Z,28.53
2018-10-19T03:30:19.818Z,27.23
2018-10-19T03:32:48.178Z,28.87
2018-10-19T03:35:16.542Z,28.37
2018-10-19T03:37:44.778Z,25.87
2018-10-19T03:40:13.075Z,29.30
2018-10-19T03:42:41.382Z,26.33
2018-10-19T03:45:09.696Z,25.13
2018-10-19T03:47:38.064Z,30.23
2018-10-19T03:50:06.420Z,27.13
2018-10-19T03:52:34.807Z,32.90
2018-10-19T03:55:03.114Z,27.87
2018-10-19T03:57:31.411Z,31.37
2018-10-19T03:59:59.769Z,28.97
2018-10-19T04:02:28.079Z,34.57
2018-10-19T04:04:56.445Z,28.20
2018-10-19T04:07:24.786Z,27.70
2018-10-19T04:09:53.143Z,32.87
2018-10-19T04:12:21.442Z,32.47
2018-10-19T04:14:49.816Z,31.73
2018-10-19T04:17:18.288Z,30.77
2018-10-19T04:19:46.491Z,35.93
2018-10-19T04:22:14.850Z,30.43
2018-10-19T04:24:43.230Z,35.73
2018-10-19T04:27:11.641Z,33.83
2018-10-19T04:29:39.975Z,32.43
2018-10-19T04:32:08.369Z,36.77
2018-10-19T04:34:36.663Z,35.50
2018-10-19T04:37:06.314Z,38.40
2018-10-19T04:39:35.042Z,35.27
2018-10-19T04:42:04.177Z,41.97
2018-10-19T04:44:32.346Z,38.63
2018-10-19T04:47:00.691Z,36.87
2018-10-19T04:49:29.217Z,36.87
2018-10-19T04:51:57.526Z,34.57
2018-10-19T04:54:25.854Z,37.93
2018-10-19T04:56:54.156Z,39.13
2018-10-19T04:59:22.442Z,38.63
2018-10-19T05:01:50.721Z,36.87
2018-10-19T05:04:18.977Z,44.77
2018-10-19T05:06:47.469Z,41.17
2018-10-19T05:09:15.717Z,35.97
2018-10-19T05:11:44.084Z,37.67
2018-10-19T05:14:12.433Z,32.83
2018-10-19T05:16:40.843Z,32.20
2018-10-19T05:19:09.326Z,32.77
2018-10-19T05:21:38.032Z,37.30
2018-10-19T05:24:06.318Z,32.97
2018-10-19T05:26:34.676Z,38.97
2018-10-19T05:29:03.118Z,32.30
2018-10-19T05:31:32.466Z,33.87
2018-10-19T05:34:00.748Z,36.17
2018-10-19T05:36:29.049Z,37.70
2018-10-19T05:38:57.322Z,37.57
2018-10-19T05:41:25.610Z,36.73
2018-10-19T05:43:53.876Z,37.13
2018-10-19T05:46:22.220Z,33.50
2018-10-19T05:48:50.505Z,36.13
2018-10-19T05:51:18.838Z,38.90
2018-10-19T05:53:47.162Z,41.67
2018-10-19T05:56:15.534Z,36.27
2018-10-19T05:58:43.777Z,38.67
2018-10-19T06:01:12.068Z,42.93
2018-10-19T06:03:40.386Z,38.80
2018-10-19T06:06:08.659Z,36.07
2018-10-19T06:08:37.003Z,42.37
2018-10-19T06:11:05.863Z,47.67
2018-10-19T06:13:34.151Z,37.97
2018-10-19T06:16:02.480Z,38.90
2018-10-19T06:18:30.892Z,37.70
2018-10-19T06:20:59.253Z,43.10
2018-10-19T06:23:27.611Z,45.57
2018-10-19T06:25:56.016Z,39.47
2018-10-19T06:28:24.358Z,42.13
2018-10-19T06:30:52.671Z,38.60
2018-10-19T06:33:20.946Z,42.40
2018-10-19T06:35:49.315Z,42.40
2018-10-19T06:38:17.600Z,42.67
2018-10-19T06:40:45.948Z,38.07
2018-10-19T06:43:14.265Z,40.17
2018-10-19T06:45:42.724Z,41.27
2018-10-19T06:48:11.019Z,40.37
2018-10-19T06:50:39.322Z,43.20
2018-10-19T06:53:07.660Z,43.17
2018-10-19T06:55:35.938Z,42.37
2018-10-19T06:58:04.275Z,42.90
2018-10-19T07:00:32.606Z,39.40
2018-10-19T07:03:00.991Z,36.23
2018-10-19T07:05:29.348Z,40.73
2018-10-19T07:07:57.865Z,38.93
2018-10-19T07:10:26.298Z,43.33
2018-10-19T07:12:54.697Z,45.43
2018-10-19T07:15:23.101Z,41.83
2018-10-19T07:17:51.466Z,38.10
2018-10-19T07:20:19.845Z,39.87
2018-10-19T07:22:48.223Z,40.43
2018-10-19T07:25:16.511Z,40.20
2018-10-19T07:27:44.868Z,42.17
2018-10-19T07:30:14.090Z,40.20
2018-10-19T07:32:42.428Z,43.07
2018-10-19T07:35:10.876Z,41.57
2018-10-19T07:37:39.154Z,38.53
2018-10-19T07:40:07.541Z,37.87
2018-10-19T07:42:36.021Z,42.17
2018-10-19T07:45:04.418Z,37.07
2018-10-19T07:47:32.866Z,38.83
2018-10-19T07:50:01.252Z,42.20
2018-10-19T07:52:29.497Z,36.70
2018-10-19T07:54:57.805Z,37.20
2018-10-19T07:57:26.148Z,38.57
2018-10-19T07:59:54.454Z,36.63
2018-10-19T08:02:22.890Z,40.67
2018-10-19T08:04:51.185Z,41.90
2018-10-19T08:07:19.478Z,38.23
2018-10-19T08:09:47.764Z,39.90
2018-10-19T08:12:16.108Z,39.60
2018-10-19T08:14:44.430Z,38.67
2018-10-19T08:17:12.827Z,40.83
2018-10-19T08:19:41.132Z,37.17
2018-10-19T08:22:09.417Z,40.30
2018-10-19T08:24:37.720Z,40.83
2018-10-19T08:27:06.228Z,40.93
2018-10-19T08:29:34.489Z,35.90
2018-10-19T08:32:02.902Z,38.13
2018-10-19T08:34:31.250Z,35.37
2018-10-19T08:36:59.645Z,36.33
2018-10-19T08:39:27.993Z,36.77
2018-10-19T08:41:56.377Z,34.83
2018-10-19T08:44:24.678Z,32.57
2018-10-19T08:46:52.970Z,34.73
2018-10-19T08:49:21.676Z,32.10
2018-10-19T08:51:49.988Z,32.17
2018-10-19T08:54:18.371Z,32.67
2018-10-19T08:56:46.656Z,36.30
2018-10-19T08:59:15.011Z,33.13
2018-10-19T09:01:43.306Z,34.37
2018-10-19T09:04:11.665Z,34.13
2018-10-19T09:06:39.972Z,30.37
2018-10-19T09:09:09.629Z,30.57
2018-10-19T09:11:38.312Z,29.93
2018-10-19T09:14:18.230Z,33.10
2018-10-19T09:16:46.956Z,34.10
2018-10-19T09:19:16.182Z,32.33
2018-10-19T09:21:44.576Z,29.53
2018-10-19T09:24:13.127Z,30.90
2018-10-19T09:26:42.666Z,31.03
2018-10-19T09:29:11.091Z,30.77
2018-10-19T09:31:39.389Z,32.40
2018-10-19T09:34:07.662Z,32.57
2018-10-19T09:36:36.005Z,33.00
2018-10-19T09:39:07.096Z,29.37
2018-10-19T09:41:35.455Z,32.73
2018-10-19T09:44:03.807Z,27.87
2018-10-19T09:46:32.155Z,29.23
2018-10-19T09:49:00.524Z,30.50
2018-10-19T09:51:28.791Z,31.57
2018-10-19T09:53:57.130Z,33.77
2018-10-19T09:56:25.443Z,32.23
2018-10-19T09:58:53.811Z,32.57
2018-10-19T10:01:28.548Z,34.70
2018-10-19T10:03:57.733Z,31.20
2018-10-19T10:06:27.133Z,29.60
2018-10-19T10:08:56.665Z,32.77
2018-10-19T10:11:26.010Z,28.37
2018-10-19T10:13:54.330Z,29.30
2018-10-19T10:16:22.646Z,32.40
2018-10-19T10:18:50.946Z,32.90
2018-10-19T10:21:19.315Z,31.93
2018-10-19T10:23:47.765Z,31.77
2018-10-19T10:26:16.138Z,30.53
2018-10-19T10:28:44.546Z,31.90
2018-10-19T10:31:13.021Z,27.57
2018-10-19T10:33:41.335Z,31.30
2018-10-19T10:36:09.642Z,34.83
2018-10-19T10:38:37.989Z,33.73
2018-10-19T10:41:06.360Z,29.60
2018-10-19T10:43:34.630Z,29.33
2018-10-19T10:46:03.054Z,35.47
2018-10-19T10:48:31.326Z,32.70
2018-10-19T10:50:59.773Z,33.00
2018-10-19T10:53:28.065Z,38.17
2018-10-19T10:55:56.429Z,31.47
2018-10-19T10:58:24.719Z,33.03
2018-10-19T11:00:53.111Z,32.83
2018-10-19T11:03:21.382Z,29.30
2018-10-19T11:05:49.771Z,32.93
2018-10-19T11:08:18.057Z,29.07
2018-10-19T11:10:46.498Z,32.93
2018-10-19T11:13:14.892Z,34.30
2018-10-19T11:15:43.138Z,31.90
2018-10-19T11:18:11.469Z,33.73
2018-10-19T11:20:39.774Z,32.20
2018-10-19T11:23:08.095Z,31.00
2018-10-19T11:25:36.501Z,34.23
2018-10-19T11:28:05.060Z,34.07
2018-10-19T11:30:33.363Z,33.37
2018-10-19T11:33:01.611Z,34.67
2018-10-19T11:35:30.016Z,34.37
2018-10-19T11:37:58.345Z,33.47
2018-10-19T11:40:29.419Z,35.27
2018-10-19T11:42:58.046Z,34.70
2018-10-19T11:45:28.454Z,32.73
2018-10-19T11:47:56.794Z,32.73
2018-10-19T11:50:25.176Z,39.77
2018-10-19T11:52:53.575Z,35.17
2018-10-19T11:55:21.956Z,32.83
2018-10-19T11:57:50.959Z,30.23
2018-10-19T12:00:19.403Z,36.00
2018-10-19T12:02:47.734Z,30.03
2018-10-19T12:05:16.070Z,30.83
2018-10-19T12:07:44.359Z,37.70
2018-10-19T12:10:13.721Z,36.60
2018-10-19T12:12:42.477Z,34.23
2018-10-19T12:15:12.554Z,32.07
2018-10-19T12:17:41.600Z,34.43
2018-10-19T12:20:11.865Z,35.03
2018-10-19T12:22:40.244Z,29.10
2018-10-19T12:25:09.646Z,31.23
2018-10-19T12:27:38.305Z,34.33
2018-10-19T12:30:07.102Z,29.70
2018-10-19T12:32:35.535Z,31.83
2018-10-19T12:35:04.254Z,32.20
2018-10-19T12:37:32.573Z,35.13
2018-10-19T12:40:00.876Z,26.13
2018-10-19T12:42:29.174Z,29.27
2018-10-19T12:44:57.680Z,27.70
2018-10-19T12:47:36.004Z,26.93
2018-10-19T12:50:04.316Z,27.07
2018-10-19T12:52:32.717Z,31.23
2018-10-19T12:55:01.112Z,25.80
2018-10-19T12:57:29.406Z,29.73
2018-10-19T12:59:57.725Z,30.40
2018-10-19T13:02:26.052Z,29.37
2018-10-19T13:04:54.379Z,31.07
2018-10-19T13:07:22.790Z,28.90
2018-10-19T13:09:51.573Z,26.37
2018-10-19T13:12:19.955Z,26.03
2018-10-19T13:14:48.270Z,27.47
2018-10-19T13:17:16.575Z,26.97
2018-10-19T13:19:44.895Z,27.83
2018-10-19T13:22:13.176Z,30.30
2018-10-19T13:24:41.545Z,25.97
2018-10-19T13:27:09.964Z,29.87
2018-10-19T13:29:38.231Z,28.33
2018-10-19T13:32:06.519Z,26.00
2018-10-19T13:34:34.855Z,29.73
2018-10-19T13:37:03.243Z,29.50
2018-10-19T13:39:31.633Z,26.47
2018-10-19T13:41:59.925Z,29.00
2018-10-19T13:44:28.215Z,29.30
2018-10-19T13:46:56.609Z,29.43
2018-10-19T13:49:24.859Z,26.23
2018-10-19T13:51:53.143Z,25.43
2018-10-19T13:54:21.493Z,27.87
2018-10-19T13:56:49.771Z,28.73
2018-10-19T13:59:18.088Z,33.40
2018-10-19T14:01:46.340Z,30.33
2018-10-19T14:04:14.617Z,30.03
2018-10-19T14:06:42.883Z,29.03
2018-10-19T14:09:11.433Z,27.77
2018-10-19T14:11:40.354Z,35.17
2018-10-19T14:14:08.748Z,31.93
2018-10-19T14:16:37.111Z,30.63
2018-10-19T14:19:05.535Z,28.07
2018-10-19T14:21:33.772Z,27.40
2018-10-19T14:24:02.098Z,29.23
2018-10-19T14:26:30.471Z,32.43
2018-10-19T14:28:58.853Z,32.17
2018-10-19T14:31:27.133Z,28.43
2018-10-19T14:33:55.403Z,26.50
2018-10-19T14:36:23.698Z,29.57
2018-10-19T14:38:52.123Z,40.30
2018-10-19T14:41:20.410Z,31.60
2018-10-19T14:43:48.794Z,29.80
2018-10-19T14:46:17.107Z,34.70
2018-10-19T14:48:45.443Z,28.07
2018-10-19T14:51:13.888Z,28.67
2018-10-19T14:53:42.091Z,28.60
2018-10-19T14:56:10.399Z,32.00
2018-10-19T14:58:38.749Z,32.27
2018-10-19T15:01:07.048Z,27.23
2018-10-19T15:03:35.319Z,28.77
2018-10-19T15:06:03.618Z,25.27
2018-10-19T15:08:31.921Z,28.47
2018-10-19T15:11:00.426Z,28.37
2018-10-19T15:13:28.551Z,30.83
2018-10-19T15:15:56.864Z,31.77
2018-10-19T15:18:25.198Z,30.60
2018-10-19T15:20:53.599Z,31.70
2018-10-19T15:23:21.850Z,28.67
2018-10-19T15:25:50.227Z,32.23
2018-10-19T15:28:18.692Z,27.93
2018-10-19T15:30:47.953Z,27.47
2018-10-19T15:33:16.668Z,29.33
2018-10-19T15:35:45.062Z,29.70
2018-10-19T15:38:13.548Z,30.00
2018-10-19T15:40:42.052Z,36.77
2018-10-19T15:43:10.373Z,31.63
2018-10-19T15:45:38.734Z,28.63
2018-10-19T15:48:07.440Z,29.90
2018-10-19T15:50:35.752Z,28.60
2018-10-19T15:53:07.005Z,33.97
2018-10-19T15:55:42.066Z,27.17
2018-10-19T15:58:18.948Z,31.83
2018-10-19T16:00:51.248Z,34.07
2018-10-19T16:03:24.483Z,32.77
2018-10-19T16:05:57.681Z,28.40
2018-10-19T16:08:35.859Z,29.63
2018-10-19T16:11:12.447Z,30.15
2018-10-19T16:13:55.066Z,31.50
2018-10-19T16:16:27.592Z,30.33
2018-10-19T16:19:06.192Z,27.87
2018-10-19T16:21:42.617Z,39.17
2018-10-19T16:24:21.842Z,33.70
2018-10-19T16:27:09.449Z,35.10
2018-10-19T16:29:47.044Z,36.60
2018-10-19T16:32:21.709Z,32.37
2018-10-19T16:34:58.643Z,33.33
2018-10-19T16:37:37.711Z,33.87
2018-10-19T16:40:14.250Z,33.57
2018-10-19T16:45:38.945Z,39.40
2018-10-19T16:48:15.654Z,33.93
2018-10-19T16:50:51.421Z,29.57
2018-10-19T16:53:30.662Z,31.23
2018-10-19T16:56:04.893Z,33.00
2018-10-19T16:58:37.401Z,35.13
2018-10-19T17:01:11.661Z,29.70
2018-10-19T17:03:57.712Z,29.33
2018-10-19T17:06:35.461Z,32.77
2018-10-19T17:09:19.764Z,32.77
2018-10-19T17:11:58.694Z,35.43
2018-10-19T17:14:38.044Z,32.60
2018-10-19T17:17:13.971Z,33.57
2018-10-19T17:19:47.200Z,36.90
2018-10-19T17:22:23.582Z,36.20
2018-10-19T17:25:09.442Z,37.43
2018-10-19T17:27:44.553Z,38.13
2018-10-19T17:30:20.511Z,35.33
2018-10-19T17:33:02.015Z,34.08
2018-10-19T17:35:33.357Z,29.97
2018-10-19T17:38:10.690Z,38.45
2018-10-19T17:41:05.240Z,32.23
2018-10-19T17:43:41.367Z,34.03
2018-10-19T17:46:26.415Z,34.13
2018-10-19T17:49:01.077Z,33.87
2018-10-19T17:51:41.309Z,36.83
2018-10-19T17:54:18.908Z,33.43
2018-10-19T17:56:53.317Z,32.87
2018-10-19T17:59:27.235Z,36.63
2018-10-19T18:02:02.397Z,32.13
2018-10-19T18:04:36.607Z,42.93
2018-10-19T18:07:10.811Z,37.30
2018-10-19T18:10:09.100Z,36.50
2018-10-19T18:13:00.532Z,37.70
2018-10-19T18:15:48.141Z,40.30
2018-10-19T18:22:03.392Z,33.07
2018-10-19T18:24:54.825Z,36.43
2018-10-19T18:27:31.237Z,34.97
2018-10-19T18:33:08.435Z,34.40
2018-10-19T18:36:02.723Z,35.20
2018-10-19T18:38:42.982Z,35.87
2018-10-19T18:41:28.801Z,34.50
2018-10-19T18:44:13.349Z,37.13
2018-10-19T18:46:55.117Z,35.03
2018-10-19T18:52:42.457Z,36.40
2018-10-19T18:55:31.524Z,40.40
2018-10-19T18:58:12.185Z,38.20
2018-10-19T19:00:55.662Z,39.17
2018-10-19T19:03:46.036Z,41.40
2018-10-19T19:09:33.819Z,39.63
2018-10-19T19:15:29.312Z,40.77
2018-10-19T19:18:12.523Z,35.43
2018-10-19T19:23:31.635Z,39.23
2018-10-19T19:29:02.463Z,41.87
2018-10-19T19:32:07.874Z,40.47
2018-10-19T19:34:47.086Z,38.50
2018-10-19T19:42:36.431Z,37.17
2018-10-19T19:45:21.037Z,40.50
2018-10-19T19:48:04.944Z,39.67
2018-10-19T19:50:52.774Z,41.93
2018-10-19T19:56:33.657Z,40.50
2018-10-19T20:01:50.787Z,38.83
2018-10-19T20:07:20.765Z,38.63
2018-10-19T20:10:03.489Z,38.67
2018-10-19T20:15:43.143Z,41.13
2018-10-19T20:21:14.587Z,40.40
2018-10-19T20:23:53.199Z,38.23
2018-10-19T20:32:10.676Z,38.35
2018-10-19T20:34:49.617Z,39.47
2018-10-19T20:37:24.796Z,38.83
2018-10-19T20:39:59.539Z,37.70
2018-10-19T20:42:35.463Z,35.70
2018-10-19T20:45:13.684Z,40.20
2018-10-19T20:47:48.508Z,35.87
2018-10-19T20:50:24.997Z,34.40
2018-10-19T20:53:07.281Z,38.53
2018-10-19T20:55:41.884Z,42.93
2018-10-19T20:58:21.956Z,39.97
2018-10-19T21:00:56.939Z,36.80
2018-10-19T21:03:36.735Z,39.73
2018-10-19T21:06:17.009Z,37.00
2018-10-19T21:08:50.513Z,37.53
2018-10-19T21:11:27.924Z,39.50
2018-10-19T21:14:05.529Z,36.83
2018-10-19T21:16:57.788Z,36.87
2018-10-19T21:19:46.802Z,38.90
2018-10-19T21:22:22.760Z,38.53
2018-10-19T21:25:08.228Z,39.30
2018-10-19T21:27:48.309Z,41.80
2018-10-19T21:30:29.897Z,39.10
2018-10-19T21:33:12.510Z,44.77
2018-10-19T21:35:55.300Z,41.53
2018-10-19T21:38:41.599Z,37.30
2018-10-19T21:41:15.551Z,40.70
2018-10-19T21:43:53.333Z,40.33
2018-10-19T21:46:35.315Z,44.13
2018-10-19T21:49:20.698Z,34.23
2018-10-19T21:51:59.608Z,36.60
2018-10-19T21:54:31.481Z,41.00
2018-10-19T21:57:07.626Z,42.20
2018-10-19T21:59:44.011Z,40.90
2018-10-19T22:02:23.980Z,37.13
2018-10-19T22:04:59.593Z,40.17
2018-10-19T22:07:34.186Z,39.40
2018-10-19T22:10:10.205Z,39.95
2018-10-19T22:12:58.365Z,36.67
2018-10-19T22:15:30.820Z,36.60
2018-10-19T22:18:26.905Z,43.43
2018-10-19T22:21:01.906Z,43.63
2018-10-19T22:23:37.966Z,39.88
2018-10-19T22:26:15.051Z,40.13
2018-10-19T22:29:00.197Z,44.03
2018-10-19T22:31:48.034Z,42.30
2018-10-19T22:34:23.934Z,41.10
2018-10-19T22:37:04.665Z,40.27
2018-10-19T22:39:44.520Z,38.27
2018-10-19T22:42:23.625Z,39.93
2018-10-19T22:45:02.736Z,36.10
2018-10-19T22:47:35.800Z,40.13
2018-10-19T22:50:11.960Z,39.20
2018-10-19T22:52:46.164Z,37.07
2018-10-19T22:55:24.999Z,37.73
2018-10-19T22:58:02.081Z,37.77
2018-10-19T23:00:35.505Z,42.03
2018-10-19T23:03:28.780Z,35.53
2018-10-19T23:06:06.216Z,37.63
2018-10-19T23:08:37.188Z,40.00
2018-10-19T23:11:09.809Z,42.30
2018-10-19T23:13:44.470Z,39.40
2018-10-19T23:16:19.811Z,42.78
2018-10-19T23:18:53.618Z,39.93
2018-10-19T23:24:11.548Z,40.37
2018-10-19T23:26:44.477Z,44.73
2018-10-19T23:29:21.135Z,41.97
2018-10-19T23:32:02.611Z,49.17
2018-10-19T23:34:48.113Z,41.57
2018-10-19T23:37:16.433Z,39.77
2018-10-19T23:39:44.690Z,42.30
2018-10-19T23:42:12.966Z,39.60
2018-10-19T23:44:41.249Z,45.87
2018-10-19T23:47:09.596Z,46.03
2018-10-19T23:49:37.819Z,42.33
2018-10-19T23:52:06.307Z,41.30
2018-10-19T23:54:34.590Z,42.63
2018-10-19T23:57:02.850Z,43.53
2018-10-19T23:59:31.160Z,40.43
